createdAt,value
2022-08-16T00:00:47.491Z,1.25
2022-08-16T00:03:20.492Z,1.50
2022-08-16T00:05:57.575Z,1.80
2022-08-16T00:08:36.088Z,1.48
2022-08-16T00:11:06.646Z,1.23
2022-08-16T00:13:41.851Z,1.55
2022-08-16T00:17:06.250Z,1.75
2022-08-16T00:19:00.791Z,1.80
2022-08-16T00:21:29.295Z,1.40
2022-08-16T00:23:59.643Z,1.70
2022-08-16T00:26:36.834Z,1.50
2022-08-16T00:29:13.075Z,1.52
2022-08-16T00:31:59.352Z,1.25
2022-08-16T00:34:43.419Z,1.13
2022-08-16T00:37:20.738Z,1.10
2022-08-16T00:39:56.913Z,1.45
2022-08-16T00:42:30.685Z,1.20
2022-08-16T00:45:06.349Z,1.33
2022-08-16T00:47:42.485Z,1.13
2022-08-16T00:50:14.008Z,1.00
2022-08-16T00:52:50.279Z,1.20
2022-08-16T00:55:23.059Z,1.05
2022-08-16T00:57:59.274Z,1.08
2022-08-16T01:00:31.813Z,1.05
2022-08-16T01:03:02.309Z,1.00
2022-08-16T01:05:32.818Z,1.00
2022-08-16T01:08:02.718Z,1.30
2022-08-16T01:10:53.156Z,1.20
2022-08-16T01:13:26.660Z,1.30
2022-08-16T01:15:59.034Z,0.90
2022-08-16T01:18:40.208Z,1.05
2022-08-16T01:21:22.850Z,1.40
2022-08-16T01:24:52.726Z,1.60
2022-08-16T01:27:04.211Z,1.00
2022-08-16T01:29:56.808Z,1.40
2022-08-16T01:32:33.771Z,1.42
2022-08-16T01:35:06.006Z,1.30
2022-08-16T01:37:44.316Z,1.50
2022-08-16T01:40:25.504Z,1.30
2022-08-16T01:42:56.480Z,1.42
2022-08-16T01:45:40.597Z,1.55
2022-08-16T01:48:19.225Z,1.33
2022-08-16T01:51:16.247Z,0.95
2022-08-16T01:53:41.106Z,1.20
2022-08-16T01:56:24.322Z,1.33
2022-08-16T01:58:55.280Z,1.20
2022-08-16T02:01:26.174Z,1.50
2022-08-16T02:03:58.503Z,1.15
2022-08-16T02:06:34.252Z,1.40
2022-08-16T02:09:05.641Z,1.50
2022-08-16T02:11:47.909Z,1.20
2022-08-16T02:14:22.553Z,1.52
2022-08-16T02:16:56.461Z,1.20
2022-08-16T02:19:59.187Z,1.33
2022-08-16T02:22:33.603Z,1.55
2022-08-16T02:25:09.972Z,1.45
2022-08-16T02:27:40.967Z,1.20
2022-08-16T02:30:35.725Z,1.33
2022-08-16T02:33:03.544Z,1.67
2022-08-16T02:35:33.278Z,1.70
2022-08-16T02:38:08.605Z,1.58
2022-08-16T02:40:37.620Z,1.70
2022-08-16T02:43:08.301Z,1.75
2022-08-16T02:45:36.459Z,1.52
2022-08-16T02:48:28.870Z,1.50
2022-08-16T02:51:06.043Z,1.60
2022-08-16T02:53:39.313Z,1.63
2022-08-16T02:56:14.654Z,1.27
2022-08-16T02:58:45.451Z,1.63
2022-08-16T03:01:24.722Z,2.00
2022-08-16T03:04:39.696Z,2.15
2022-08-16T03:06:56.603Z,1.70
2022-08-16T03:09:28.821Z,1.73
2022-08-16T03:11:58.364Z,1.42
2022-08-16T03:14:30.725Z,1.40
2022-08-16T03:17:00.692Z,1.10
2022-08-16T03:19:48.504Z,1.50
2022-08-16T03:22:28.403Z,1.40
2022-08-16T03:25:01.205Z,1.40
2022-08-16T03:27:31.250Z,1.30
2022-08-16T03:30:16.059Z,1.48
2022-08-16T03:32:47.711Z,1.20
2022-08-16T03:35:22.408Z,1.10
2022-08-16T03:38:03.231Z,1.17
2022-08-16T03:40:34.171Z,1.20
2022-08-16T03:43:20.303Z,1.20
2022-08-16T03:45:53.747Z,1.15
2022-08-16T03:48:36.585Z,1.35
2022-08-16T03:51:12.229Z,1.20
2022-08-16T03:53:41.998Z,1.20
2022-08-16T03:56:18.690Z,1.27
2022-08-16T03:58:50.832Z,1.15
2022-08-16T04:01:23.003Z,1.10
2022-08-16T04:03:52.777Z,0.90
2022-08-16T04:06:22.245Z,1.00
2022-08-16T04:08:50.838Z,1.15
2022-08-16T04:11:19.752Z,1.20
2022-08-16T04:14:01.371Z,1.00
2022-08-16T04:16:38.767Z,0.90
2022-08-16T04:19:07.207Z,1.25
2022-08-16T04:21:45.945Z,1.23
2022-08-16T04:24:15.706Z,0.80
2022-08-16T04:26:46.316Z,1.00
2022-08-16T04:29:24.426Z,0.85
2022-08-16T04:31:57.984Z,1.10
2022-08-16T04:34:28.824Z,1.15
2022-08-16T04:36:58.166Z,1.17
2022-08-16T04:39:45.632Z,1.40
2022-08-16T04:42:16.077Z,1.02
2022-08-16T04:44:57.509Z,0.80
2022-08-16T04:47:35.458Z,0.80
2022-08-16T04:50:06.516Z,0.80
2022-08-16T04:52:36.648Z,1.02
2022-08-16T04:55:11.926Z,1.02
2022-08-16T04:57:41.968Z,1.00
2022-08-16T05:00:32.914Z,0.95
2022-08-16T05:03:07.038Z,0.80
2022-08-16T05:05:55.622Z,1.23
2022-08-16T05:08:27.967Z,1.00
2022-08-16T05:11:03.363Z,0.93
2022-08-16T05:13:41.112Z,1.02
2022-08-16T05:16:16.765Z,1.20
2022-08-16T05:18:52.844Z,0.93
2022-08-16T05:21:22.343Z,1.00
2022-08-16T05:23:55.814Z,1.10
2022-08-16T05:26:28.398Z,1.10
2022-08-16T05:28:57.748Z,1.00
2022-08-16T05:31:29.655Z,0.77
2022-08-16T05:34:03.079Z,1.00
2022-08-16T05:36:34.240Z,0.80
2022-08-16T05:39:08.712Z,1.02
2022-08-16T05:41:45.682Z,1.00
2022-08-16T05:44:23.926Z,0.90
2022-08-16T05:46:55.128Z,1.10
2022-08-16T05:49:38.911Z,1.00
2022-08-16T05:52:11.637Z,0.82
2022-08-16T05:54:46.733Z,1.27
2022-08-16T05:57:16.742Z,1.00
2022-08-16T05:59:47.618Z,1.15
2022-08-16T06:02:19.727Z,1.10
2022-08-16T06:04:49.631Z,1.00
2022-08-16T06:07:24.680Z,1.30
2022-08-16T06:09:56.412Z,1.05
2022-08-16T06:12:26.803Z,1.00
2022-08-16T06:14:59.513Z,1.00
2022-08-16T06:17:41.176Z,1.20
2022-08-16T06:20:18.221Z,1.00
2022-08-16T06:22:58.683Z,1.17
2022-08-16T06:25:36.523Z,1.20
2022-08-16T06:28:17.318Z,1.13
2022-08-16T06:30:59.803Z,1.10
2022-08-16T06:33:30.420Z,1.13
2022-08-16T06:36:14.291Z,0.80
2022-08-16T06:38:56.161Z,1.00
2022-08-16T06:41:27.608Z,1.23
2022-08-16T06:43:56.649Z,1.17
2022-08-16T06:46:31.907Z,1.10
2022-08-16T06:49:01.818Z,1.30
2022-08-16T06:51:45.912Z,1.23
2022-08-16T06:54:17.303Z,1.20
2022-08-16T06:56:45.802Z,1.15
2022-08-16T06:59:14.067Z,1.00
2022-08-16T07:01:43.189Z,1.40
2022-08-16T07:04:12.953Z,0.93
2022-08-16T07:07:02.106Z,0.90
2022-08-16T07:09:31.590Z,1.10
2022-08-16T07:12:02.929Z,1.00
2022-08-16T07:14:32.281Z,0.98
2022-08-16T07:17:01.233Z,0.90
2022-08-16T07:20:01.684Z,1.00
2022-08-16T07:22:36.625Z,1.33
2022-08-16T07:25:09.315Z,1.30
2022-08-16T07:27:38.824Z,1.20
2022-08-16T07:30:39.785Z,1.23
2022-08-16T07:33:00.817Z,1.33
2022-08-16T07:35:29.171Z,1.02
2022-08-16T07:37:59.031Z,1.10
2022-08-16T07:40:57.997Z,1.20
2022-08-16T07:43:15.825Z,1.30
2022-08-16T07:45:48.256Z,1.15
2022-08-16T07:48:22.253Z,1.20
2022-08-16T07:50:56.352Z,1.10
2022-08-16T07:53:29.427Z,1.20
2022-08-16T07:55:59.525Z,1.45
2022-08-16T07:58:34.187Z,1.10
2022-08-16T08:01:10.511Z,1.30
2022-08-16T08:03:42.554Z,1.27
2022-08-16T08:06:13.654Z,1.17
2022-08-16T08:08:49.703Z,1.30
2022-08-16T08:11:23.620Z,1.30
2022-08-16T08:13:53.832Z,1.30
2022-08-16T08:16:30.349Z,1.23
2022-08-16T08:19:02.808Z,1.23
2022-08-16T08:21:58.806Z,1.23
2022-08-16T08:24:31.576Z,1.23
2022-08-16T08:27:02.216Z,1.35
2022-08-16T08:29:37.696Z,1.77
2022-08-16T08:32:58.775Z,1.55
2022-08-16T08:35:03.283Z,1.40
2022-08-16T08:37:54.595Z,1.60
2022-08-16T08:40:24.662Z,1.77
2022-08-16T08:42:57.803Z,1.20
2022-08-16T08:45:46.928Z,1.67
2022-08-16T08:48:35.125Z,1.73
2022-08-16T08:51:09.254Z,1.63
2022-08-16T08:53:38.929Z,1.90
2022-08-16T08:56:23.039Z,2.05
2022-08-16T08:58:58.847Z,1.80
2022-08-16T09:01:36.923Z,1.80
2022-08-16T09:04:14.890Z,1.40
2022-08-16T09:06:47.704Z,1.85
2022-08-16T09:09:17.718Z,1.50
2022-08-16T09:12:06.588Z,1.63
2022-08-16T09:14:38.787Z,1.60
2022-08-16T09:40:42.556Z,1.88
2022-08-16T09:43:46.583Z,1.80
2022-08-16T09:46:45.731Z,1.48
2022-08-16T09:48:56.710Z,1.95
2022-08-16T09:51:30.799Z,1.70
2022-08-16T09:54:06.291Z,1.95
2022-08-16T09:56:53.229Z,2.00
2022-08-16T09:59:25.493Z,2.17
2022-08-16T10:02:01.067Z,2.17
2022-08-16T10:04:54.604Z,2.00
2022-08-16T10:07:23.889Z,1.90
2022-08-16T10:09:55.335Z,1.75
2022-08-16T10:12:43.454Z,2.00
2022-08-16T10:15:17.197Z,1.83
2022-08-16T10:18:00.736Z,1.73
2022-08-16T10:20:34.058Z,1.95
2022-08-16T10:23:07.240Z,2.17
2022-08-16T10:27:19.647Z,1.73
2022-08-16T10:28:32.065Z,2.45
2022-08-16T10:31:04.266Z,2.05
2022-08-16T10:33:34.813Z,1.88
2022-08-16T10:36:10.215Z,2.30
2022-08-16T10:38:42.585Z,2.33
2022-08-16T10:41:16.149Z,2.35
2022-08-16T10:43:45.329Z,2.13
2022-08-16T10:46:39.098Z,2.40
2022-08-16T10:49:09.292Z,2.20
2022-08-16T10:52:03.137Z,2.15
2022-08-16T10:54:29.059Z,2.38
2022-08-16T10:56:59.444Z,2.40
2022-08-16T10:59:39.206Z,2.38
2022-08-16T11:03:00.446Z,2.60
2022-08-16T11:05:11.776Z,2.83
2022-08-16T11:07:43.401Z,2.42
2022-08-16T11:11:04.972Z,2.17
2022-08-16T11:15:57.798Z,2.70
2022-08-16T11:19:04.699Z,2.55
2022-08-16T11:21:29.424Z,2.13
2022-08-16T11:23:59.651Z,2.45
2022-08-16T11:26:28.932Z,2.40
2022-08-16T11:29:14.535Z,2.75
2022-08-16T11:31:45.948Z,2.58
2022-08-16T11:34:24.966Z,2.22
2022-08-16T11:37:01.135Z,2.40
2022-08-16T11:39:30.658Z,1.98
2022-08-16T11:42:00.171Z,2.42
2022-08-16T11:44:40.648Z,2.67
2022-08-16T11:47:16.952Z,2.53
2022-08-16T11:49:46.758Z,2.65
2022-08-16T11:52:17.767Z,2.92
2022-08-16T11:54:56.946Z,2.90
2022-08-16T11:57:28.376Z,2.97
2022-08-16T11:59:56.615Z,2.67
2022-08-16T12:02:31.332Z,2.85
2022-08-16T12:05:02.566Z,2.72
2022-08-16T12:07:33.248Z,3.00
2022-08-16T12:10:02.237Z,2.70
2022-08-16T12:12:30.796Z,2.80
2022-08-16T12:15:01.517Z,3.15
2022-08-16T12:17:31.978Z,3.42
2022-08-16T12:20:04.715Z,3.03
2022-08-16T12:22:33.991Z,2.92
2022-08-16T12:25:16.807Z,2.88
2022-08-16T12:27:47.203Z,2.78
2022-08-16T12:30:27.028Z,2.80
2022-08-16T12:33:03.050Z,2.97
2022-08-16T12:35:33.825Z,2.95
2022-08-16T12:38:37.973Z,2.90
2022-08-16T12:40:57.091Z,2.80
2022-08-16T12:43:26.022Z,2.70
2022-08-16T12:45:59.775Z,2.80
2022-08-16T12:48:47.095Z,3.25
2022-08-16T12:51:22.375Z,3.33
2022-08-16T12:53:54.486Z,2.90
2022-08-16T12:56:25.711Z,2.80
2022-08-16T12:58:56.103Z,2.85
2022-08-16T13:01:28.879Z,2.80
2022-08-16T13:04:11.633Z,3.00
2022-08-16T13:06:44.383Z,3.05
2022-08-16T13:09:26.854Z,2.90
2022-08-16T13:12:05.678Z,3.28
2022-08-16T13:14:36.233Z,3.20
2022-08-16T13:17:07.158Z,3.13
2022-08-16T13:20:06.080Z,3.28
2022-08-16T13:22:26.947Z,3.28
2022-08-16T13:24:55.984Z,3.15
2022-08-16T13:27:34.993Z,3.13
2022-08-16T13:30:35.533Z,3.10
2022-08-16T13:33:02.167Z,2.97
2022-08-16T13:35:43.161Z,3.03
2022-08-16T13:38:25.106Z,3.50
2022-08-16T13:40:56.681Z,3.10
2022-08-16T13:43:26.599Z,3.08
2022-08-16T13:45:56.118Z,3.70
2022-08-16T13:48:26.133Z,3.47
2022-08-16T13:50:55.234Z,2.80
2022-08-16T13:53:28.584Z,3.72
2022-08-16T13:55:58.945Z,3.40
2022-08-16T13:58:37.028Z,3.10
2022-08-16T14:01:17.522Z,3.13
2022-08-16T14:03:47.383Z,3.25
2022-08-16T14:06:18.578Z,3.65
2022-08-16T14:08:59.032Z,3.13
2022-08-16T14:11:35.930Z,3.05
2022-08-16T14:14:05.286Z,3.55
2022-08-16T14:16:35.212Z,3.15
2022-08-16T14:19:03.869Z,3.05
2022-08-16T14:21:34.842Z,3.10
2022-08-16T14:24:08.084Z,2.83
2022-08-16T14:26:52.672Z,2.72
2022-08-16T14:29:21.693Z,2.78
2022-08-16T14:31:53.987Z,3.03
2022-08-16T14:34:25.766Z,2.92
2022-08-16T14:36:58.268Z,2.63
2022-08-16T14:39:29.651Z,2.92
2022-08-16T14:42:06.053Z,3.00
2022-08-16T14:44:34.684Z,3.25
2022-08-16T14:47:04.317Z,2.97
2022-08-16T14:49:34.728Z,2.85
2022-08-16T14:52:08.406Z,3.10
2022-08-16T14:54:39.682Z,2.75
2022-08-16T14:57:08.574Z,3.13
2022-08-16T14:59:37.595Z,3.08
2022-08-16T15:02:17.242Z,2.95
2022-08-16T15:05:04.618Z,2.47
2022-08-16T15:07:35.399Z,2.80
2022-08-16T15:10:06.642Z,2.58
2022-08-16T15:12:36.235Z,3.08
2022-08-16T15:15:12.710Z,2.95
2022-08-16T15:17:56.159Z,2.72
2022-08-16T15:20:29.644Z,2.88
2022-08-16T15:22:59.513Z,2.95
2022-08-16T15:25:33.244Z,2.80
2022-08-16T15:28:05.667Z,3.20
2022-08-16T15:30:58.450Z,2.55
2022-08-16T15:33:27.039Z,3.00
2022-08-16T15:35:58.225Z,2.80
2022-08-16T15:38:58.190Z,3.08
2022-08-16T15:41:47.050Z,2.95
2022-08-16T15:44:22.314Z,2.92
2022-08-16T15:46:54.574Z,3.58
2022-08-16T15:49:37.141Z,2.95
2022-08-16T15:52:11.761Z,3.13
2022-08-16T15:54:52.481Z,3.40
2022-08-16T15:57:24.493Z,3.33
2022-08-16T15:59:56.301Z,3.50
2022-08-16T16:02:33.689Z,3.17
2022-08-16T16:05:04.600Z,3.10
2022-08-16T16:07:33.917Z,3.55
2022-08-16T16:10:04.044Z,3.17
2022-08-16T16:12:51.608Z,3.58
2022-08-16T16:15:25.438Z,3.22
2022-08-16T16:17:55.502Z,3.47
2022-08-16T16:20:27.154Z,3.92
2022-08-16T16:22:57.685Z,3.45
2022-08-16T16:25:27.002Z,3.28
2022-08-16T16:27:59.734Z,3.55
2022-08-16T16:30:38.305Z,3.80
2022-08-16T16:33:20.507Z,3.70
2022-08-16T16:35:56.677Z,3.97
2022-08-16T16:38:29.069Z,3.85
2022-08-16T16:40:58.514Z,3.50
2022-08-16T16:43:31.648Z,3.63
2022-08-16T16:46:02.710Z,3.60
2022-08-16T16:48:35.418Z,3.20
2022-08-16T16:51:09.905Z,3.42
2022-08-16T16:53:42.264Z,2.92
2022-08-16T16:56:19.897Z,3.95
2022-08-16T16:59:00.835Z,3.13
2022-08-16T17:01:56.559Z,3.63
2022-08-16T17:04:31.416Z,2.95
2022-08-16T17:07:01.323Z,2.83
2022-08-16T17:09:29.842Z,3.22
2022-08-16T17:11:59.490Z,2.95
2022-08-16T17:14:33.340Z,3.30
2022-08-16T17:17:06.270Z,3.60
2022-08-16T17:19:40.197Z,3.20
2022-08-16T17:22:14.368Z,3.53
2022-08-16T17:27:37.490Z,4.13
2022-08-16T17:30:16.038Z,3.80
2022-08-16T17:32:50.106Z,3.78
2022-08-16T17:35:23.245Z,3.53
2022-08-16T17:38:04.822Z,3.45
2022-08-16T17:39:27.988Z,3.58
2022-08-16T17:40:47.077Z,3.33
2022-08-16T17:43:27.649Z,3.28
2022-08-16T17:45:58.894Z,3.55
2022-08-16T17:48:27.793Z,3.53
2022-08-16T17:50:56.164Z,3.17
2022-08-16T17:53:25.029Z,3.10
2022-08-16T17:55:54.701Z,3.15
2022-08-16T17:58:24.488Z,2.95
2022-08-16T18:00:56.384Z,2.97
2022-08-16T18:04:02.810Z,3.42
2022-08-16T18:06:18.797Z,3.22
2022-08-16T18:08:48.911Z,3.20
2022-08-16T18:11:24.253Z,3.08
2022-08-16T18:13:55.885Z,3.90
2022-08-16T18:16:24.359Z,3.03
2022-08-16T18:18:54.168Z,2.97
2022-08-16T18:21:40.045Z,2.97
2022-08-16T18:24:08.915Z,3.08
2022-08-16T18:26:37.528Z,3.47
2022-08-16T18:29:06.477Z,3.35
2022-08-16T18:31:35.183Z,3.20
2022-08-16T18:34:04.974Z,3.33
2022-08-16T18:36:33.542Z,3.08
2022-08-16T18:39:02.215Z,3.30
2022-08-16T18:41:30.675Z,3.70
2022-08-16T18:44:25.047Z,7.20
2022-08-16T18:46:50.933Z,7.38
2022-08-16T18:49:21.233Z,6.18
2022-08-16T18:51:51.039Z,5.75
2022-08-16T18:54:19.780Z,6.55
2022-08-16T18:56:56.298Z,6.07
2022-08-16T18:59:27.514Z,7.45
2022-08-16T19:02:00.028Z,6.40
2022-08-16T19:04:47.966Z,5.57
2022-08-16T19:07:31.302Z,4.63
2022-08-16T19:10:01.348Z,5.03
2022-08-16T19:12:38.173Z,4.95
2022-08-16T19:15:13.500Z,4.15
2022-08-16T19:17:43.254Z,3.90
2022-08-16T19:20:15.299Z,3.78
2022-08-16T19:25:47.039Z,4.07
2022-08-16T19:28:52.045Z,4.60
2022-08-16T19:31:06.638Z,3.47
2022-08-16T19:33:35.020Z,3.50
2022-08-16T19:36:07.190Z,3.75
2022-08-16T19:38:40.028Z,4.05
2022-08-16T19:41:08.653Z,4.45
2022-08-16T19:43:37.119Z,3.83
2022-08-16T19:46:05.599Z,3.53
2022-08-16T19:48:33.858Z,3.28
2022-08-16T19:51:02.242Z,3.35
2022-08-16T19:53:31.918Z,3.70
2022-08-16T19:56:00.630Z,3.53
2022-08-16T19:58:29.230Z,3.45
2022-08-16T20:00:57.963Z,4.13
2022-08-16T20:03:27.590Z,3.45
2022-08-16T20:05:57.065Z,3.75
2022-08-16T20:08:25.730Z,3.90
2022-08-16T20:10:55.498Z,3.85
2022-08-16T20:13:25.349Z,3.55
2022-08-16T20:15:54.026Z,4.18
2022-08-16T20:18:25.429Z,4.72
2022-08-16T20:20:56.185Z,3.58
2022-08-16T20:23:25.487Z,3.20
2022-08-16T20:26:03.459Z,3.42
2022-08-16T20:28:51.730Z,3.30
2022-08-16T20:31:21.015Z,3.13
2022-08-16T20:33:50.644Z,3.35
2022-08-16T20:36:19.010Z,4.05
2022-08-16T20:38:48.112Z,3.45
2022-08-16T20:41:18.891Z,3.88
2022-08-16T20:43:48.686Z,3.50
2022-08-16T20:46:17.090Z,2.83
2022-08-16T20:48:45.482Z,3.55
2022-08-16T20:51:13.866Z,3.70
2022-08-16T20:53:43.288Z,3.50
2022-08-16T20:56:12.687Z,4.13
2022-08-16T20:58:42.502Z,3.58
2022-08-16T21:01:10.816Z,3.53
2022-08-16T21:03:39.671Z,3.47
2022-08-16T21:06:08.383Z,3.45
2022-08-16T21:08:53.209Z,3.28
2022-08-16T21:11:23.767Z,3.67
2022-08-16T21:14:00.077Z,4.05
2022-08-16T21:16:28.885Z,3.42
2022-08-16T21:18:57.154Z,4.05
2022-08-16T21:21:31.852Z,4.13
2022-08-16T21:24:01.828Z,3.40
2022-08-16T21:26:30.340Z,3.67
2022-08-16T21:28:59.987Z,3.50
2022-08-16T21:31:28.229Z,3.67
2022-08-16T21:33:56.638Z,3.83
2022-08-16T21:36:35.866Z,3.80
2022-08-16T21:39:06.718Z,3.58
2022-08-16T21:41:35.782Z,4.10
2022-08-16T21:44:06.090Z,3.75
2022-08-16T21:46:34.739Z,4.05
2022-08-16T21:49:04.804Z,3.35
2022-08-16T21:51:33.409Z,3.50
2022-08-16T21:54:01.700Z,3.53
2022-08-16T21:56:30.107Z,3.25
2022-08-16T21:58:58.449Z,4.20
2022-08-16T22:01:29.631Z,3.60
2022-08-16T22:04:35.229Z,3.42
2022-08-16T22:06:46.279Z,3.67
2022-08-16T22:09:16.546Z,3.40
2022-08-16T22:11:45.929Z,3.22
2022-08-16T22:14:14.125Z,3.80
2022-08-16T22:16:44.228Z,3.60
2022-08-16T22:19:13.746Z,3.38
2022-08-16T22:21:42.215Z,4.05
2022-08-16T22:24:11.131Z,3.70
2022-08-16T22:26:43.285Z,3.75
2022-08-16T22:29:15.075Z,3.67
2022-08-16T22:31:45.508Z,3.28
2022-08-16T22:34:14.303Z,3.55
2022-08-16T22:36:44.486Z,4.20
2022-08-16T22:39:15.248Z,3.53
2022-08-16T22:41:45.923Z,3.20
2022-08-16T22:44:14.670Z,3.72
2022-08-16T22:46:44.662Z,3.78
2022-08-16T22:49:13.762Z,3.33
2022-08-16T22:51:42.499Z,3.67
2022-08-16T22:54:44.319Z,4.00
2022-08-16T22:56:59.673Z,3.28
2022-08-16T22:59:28.859Z,3.67
2022-08-16T23:01:58.601Z,3.60
2022-08-16T23:04:27.110Z,3.60
2022-08-16T23:06:55.549Z,3.72
2022-08-16T23:09:23.866Z,3.67
2022-08-16T23:11:52.123Z,3.60
2022-08-16T23:14:20.549Z,3.75
2022-08-16T23:16:48.811Z,3.75
2022-08-16T23:19:19.207Z,3.30
2022-08-16T23:21:49.530Z,3.63
2022-08-16T23:24:20.635Z,3.17
2022-08-16T23:26:49.847Z,4.00
2022-08-16T23:29:24.451Z,3.63
2022-08-16T23:31:56.962Z,3.38
2022-08-16T23:34:28.199Z,3.53
2022-08-16T23:36:57.024Z,3.55
2022-08-16T23:39:25.599Z,4.05
2022-08-16T23:41:54.015Z,3.70
2022-08-16T23:44:55.536Z,3.03
2022-08-16T23:47:11.042Z,3.50
2022-08-16T23:49:56.030Z,3.95
2022-08-16T23:52:42.236Z,3.75
2022-08-16T23:55:17.075Z,4.03
2022-08-16T23:57:46.354Z,3.95
